sensor_id;sensor_type;location;lat;lon;timestamp;temperature;humidity
480;DHT22;226;48.606;9.096;2023-03-08T00:00:43;3.90;6.10
480;DHT22;226;48.606;9.096;2023-03-08T00:03:12;3.90;6.30
480;DHT22;226;48.606;9.096;2023-03-08T00:05:41;3.90;6.10
480;DHT22;226;48.606;9.096;2023-03-08T00:08:09;3.90;7.40
480;DHT22;226;48.606;9.096;2023-03-08T00:10:37;3.90;6.40
480;DHT22;226;48.606;9.096;2023-03-08T00:13:07;4.00;6.30
480;DHT22;226;48.606;9.096;2023-03-08T00:15:35;3.80;6.30
480;DHT22;226;48.606;9.096;2023-03-08T00:18:04;3.90;7.00
480;DHT22;226;48.606;9.096;2023-03-08T00:20:33;4.00;6.00
480;DHT22;226;48.606;9.096;2023-03-08T00:23:01;3.80;6.20
480;DHT22;226;48.606;9.096;2023-03-08T00:25:29;3.90;6.50
480;DHT22;226;48.606;9.096;2023-03-08T00:27:57;4.90;7.50
480;DHT22;226;48.606;9.096;2023-03-08T00:30:26;4.00;6.80
480;DHT22;226;48.606;9.096;2023-03-08T00:32:55;4.20;6.70
480;DHT22;226;48.606;9.096;2023-03-08T00:35:23;3.90;6.50
480;DHT22;226;48.606;9.096;2023-03-08T00:37:51;4.00;6.90
480;DHT22;226;48.606;9.096;2023-03-08T00:40:19;4.10;6.70
480;DHT22;226;48.606;9.096;2023-03-08T00:42:47;3.80;6.70
480;DHT22;226;48.606;9.096;2023-03-08T00:45:16;3.20;6.60
480;DHT22;226;48.606;9.096;2023-03-08T00:47:45;3.70;7.00
480;DHT22;226;48.606;9.096;2023-03-08T00:50:13;3.50;7.30
480;DHT22;226;48.606;9.096;2023-03-08T00:52:41;3.70;7.20
480;DHT22;226;48.606;9.096;2023-03-08T00:55:09;3.20;7.40
480;DHT22;226;48.606;9.096;2023-03-08T00:57:37;3.70;8.00
480;DHT22;226;48.606;9.096;2023-03-08T01:00:07;3.50;7.90
480;DHT22;226;48.606;9.096;2023-03-08T01:02:38;3.40;7.90
480;DHT22;226;48.606;9.096;2023-03-08T01:05:09;3.40;7.90
480;DHT22;226;48.606;9.096;2023-03-08T01:07:37;3.00;7.70
480;DHT22;226;48.606;9.096;2023-03-08T01:10:05;3.20;8.10
480;DHT22;226;48.606;9.096;2023-03-08T01:12:34;3.20;7.80
480;DHT22;226;48.606;9.096;2023-03-08T01:15:04;3.20;8.20
480;DHT22;226;48.606;9.096;2023-03-08T01:17:32;3.10;8.70
480;DHT22;226;48.606;9.096;2023-03-08T01:20:00;3.10;8.60
480;DHT22;226;48.606;9.096;2023-03-08T01:22:31;3.10;8.50
480;DHT22;226;48.606;9.096;2023-03-08T01:24:59;3.10;8.60
480;DHT22;226;48.606;9.096;2023-03-08T01:27:27;2.90;8.70
480;DHT22;226;48.606;9.096;2023-03-08T01:29:55;3.00;9.10
480;DHT22;226;48.606;9.096;2023-03-08T01:32:23;2.70;8.90
480;DHT22;226;48.606;9.096;2023-03-08T01:34:52;2.90;9.00
480;DHT22;226;48.606;9.096;2023-03-08T01:37:20;2.90;9.20
480;DHT22;226;48.606;9.096;2023-03-08T01:39:50;3.00;9.50
480;DHT22;226;48.606;9.096;2023-03-08T01:42:18;2.80;9.80
480;DHT22;226;48.606;9.096;2023-03-08T01:44:54;2.80;9.80
480;DHT22;226;48.606;9.096;2023-03-08T01:47:23;2.70;10.10
480;DHT22;226;48.606;9.096;2023-03-08T01:49:53;2.50;10.10
480;DHT22;226;48.606;9.096;2023-03-08T01:52:24;2.70;10.40
480;DHT22;226;48.606;9.096;2023-03-08T01:54:56;2.60;10.50
480;DHT22;226;48.606;9.096;2023-03-08T01:57:28;2.60;10.20
480;DHT22;226;48.606;9.096;2023-03-08T02:00:02;2.60;10.60
480;DHT22;226;48.606;9.096;2023-03-08T02:02:34;2.60;10.60
480;DHT22;226;48.606;9.096;2023-03-08T02:05:05;2.60;10.90
480;DHT22;226;48.606;9.096;2023-03-08T02:07:33;2.70;10.60
480;DHT22;226;48.606;9.096;2023-03-08T02:10:03;2.60;10.40
480;DHT22;226;48.606;9.096;2023-03-08T02:12:31;2.80;10.50
480;DHT22;226;48.606;9.096;2023-03-08T02:15:01;2.70;10.30
480;DHT22;226;48.606;9.096;2023-03-08T02:17:31;2.90;10.10
480;DHT22;226;48.606;9.096;2023-03-08T02:20:05;3.00;10.20
480;DHT22;226;48.606;9.096;2023-03-08T02:22:39;3.10;9.90
480;DHT22;226;48.606;9.096;2023-03-08T02:25:13;3.00;10.10
480;DHT22;226;48.606;9.096;2023-03-08T02:27:41;2.90;10.40
480;DHT22;226;48.606;9.096;2023-03-08T02:30:12;3.10;10.10
480;DHT22;226;48.606;9.096;2023-03-08T02:32:41;3.10;9.90
480;DHT22;226;48.606;9.096;2023-03-08T02:35:09;3.10;9.70
480;DHT22;226;48.606;9.096;2023-03-08T02:37:39;3.40;10.10
480;DHT22;226;48.606;9.096;2023-03-08T02:40:08;2.90;10.00
480;DHT22;226;48.606;9.096;2023-03-08T02:42:38;3.00;10.20
480;DHT22;226;48.606;9.096;2023-03-08T02:45:07;3.30;10.70
480;DHT22;226;48.606;9.096;2023-03-08T02:47:35;2.90;10.40
480;DHT22;226;48.606;9.096;2023-03-08T02:50:04;2.90;11.00
480;DHT22;226;48.606;9.096;2023-03-08T02:52:32;2.90;10.40
480;DHT22;226;48.606;9.096;2023-03-08T02:55:02;2.90;10.40
480;DHT22;226;48.606;9.096;2023-03-08T02:57:30;3.00;10.40
480;DHT22;226;48.606;9.096;2023-03-08T02:59:58;3.00;10.60
480;DHT22;226;48.606;9.096;2023-03-08T03:02:26;2.80;10.20
480;DHT22;226;48.606;9.096;2023-03-08T03:04:54;3.10;10.40
480;DHT22;226;48.606;9.096;2023-03-08T03:07:22;3.20;10.30
480;DHT22;226;48.606;9.096;2023-03-08T03:09:50;3.10;9.60
480;DHT22;226;48.606;9.096;2023-03-08T03:12:20;3.20;9.90
480;DHT22;226;48.606;9.096;2023-03-08T03:14:48;3.30;9.50
480;DHT22;226;48.606;9.096;2023-03-08T03:17:16;3.30;9.60
480;DHT22;226;48.606;9.096;2023-03-08T03:19:45;4.70;10.70
480;DHT22;226;48.606;9.096;2023-03-08T03:22:13;3.30;10.00
480;DHT22;226;48.606;9.096;2023-03-08T03:24:41;3.30;10.20
480;DHT22;226;48.606;9.096;2023-03-08T03:27:09;3.00;10.20
480;DHT22;226;48.606;9.096;2023-03-08T03:29:39;3.70;9.70
480;DHT22;226;48.606;9.096;2023-03-08T03:32:07;3.40;10.30
480;DHT22;226;48.606;9.096;2023-03-08T03:34:35;3.40;9.90
480;DHT22;226;48.606;9.096;2023-03-08T03:37:03;3.50;9.80
480;DHT22;226;48.606;9.096;2023-03-08T03:39:35;3.40;9.90
480;DHT22;226;48.606;9.096;2023-03-08T03:42:05;3.40;9.20
480;DHT22;226;48.606;9.096;2023-03-08T03:44:33;3.50;9.60
480;DHT22;226;48.606;9.096;2023-03-08T03:47:04;3.60;9.80
480;DHT22;226;48.606;9.096;2023-03-08T03:49:32;3.50;9.50
480;DHT22;226;48.606;9.096;2023-03-08T03:52:00;3.70;10.00
480;DHT22;226;48.606;9.096;2023-03-08T03:54:28;3.50;9.80
480;DHT22;226;48.606;9.096;2023-03-08T03:56:56;3.50;9.90
480;DHT22;226;48.606;9.096;2023-03-08T03:59:26;3.50;9.80
480;DHT22;226;48.606;9.096;2023-03-08T04:01:54;3.50;9.70
480;DHT22;226;48.606;9.096;2023-03-08T04:04:23;3.40;10.00
480;DHT22;226;48.606;9.096;2023-03-08T04:06:51;3.50;9.60
480;DHT22;226;48.606;9.096;2023-03-08T04:09:19;3.10;9.70
480;DHT22;226;48.606;9.096;2023-03-08T04:11:48;3.40;9.80
480;DHT22;226;48.606;9.096;2023-03-08T04:14:16;3.50;10.20
480;DHT22;226;48.606;9.096;2023-03-08T04:16:44;3.20;10.00
480;DHT22;226;48.606;9.096;2023-03-08T04:19:12;3.20;10.40
480;DHT22;226;48.606;9.096;2023-03-08T04:21:42;3.20;10.30
480;DHT22;226;48.606;9.096;2023-03-08T04:24:10;3.10;11.00
480;DHT22;226;48.606;9.096;2023-03-08T04:26:38;3.10;10.80
480;DHT22;226;48.606;9.096;2023-03-08T04:29:06;3.20;10.90
480;DHT22;226;48.606;9.096;2023-03-08T04:31:34;2.80;10.80
480;DHT22;226;48.606;9.096;2023-03-08T04:34:03;3.70;11.80
480;DHT22;226;48.606;9.096;2023-03-08T04:36:31;3.10;11.00
480;DHT22;226;48.606;9.096;2023-03-08T04:39:01;3.20;11.40
480;DHT22;226;48.606;9.096;2023-03-08T04:41:29;3.20;11.00
480;DHT22;226;48.606;9.096;2023-03-08T04:43:57;3.00;11.20
480;DHT22;226;48.606;9.096;2023-03-08T04:46:26;3.30;11.50
480;DHT22;226;48.606;9.096;2023-03-08T04:48:55;3.30;10.90
480;DHT22;226;48.606;9.096;2023-03-08T04:51:24;3.30;11.00
480;DHT22;226;48.606;9.096;2023-03-08T04:53:53;3.30;11.40
480;DHT22;226;48.606;9.096;2023-03-08T04:56:22;3.10;11.80
480;DHT22;226;48.606;9.096;2023-03-08T04:58:51;3.30;11.10
480;DHT22;226;48.606;9.096;2023-03-08T05:01:20;3.20;11.20
480;DHT22;226;48.606;9.096;2023-03-08T05:03:50;3.70;10.80
480;DHT22;226;48.606;9.096;2023-03-08T05:06:19;3.50;11.40
480;DHT22;226;48.606;9.096;2023-03-08T05:08:47;3.40;10.40
480;DHT22;226;48.606;9.096;2023-03-08T05:11:18;3.70;10.70
480;DHT22;226;48.606;9.096;2023-03-08T05:13:47;3.80;10.40
480;DHT22;226;48.606;9.096;2023-03-08T05:16:16;3.90;11.00
480;DHT22;226;48.606;9.096;2023-03-08T05:18:44;3.70;11.00
480;DHT22;226;48.606;9.096;2023-03-08T05:21:14;3.70;10.70
480;DHT22;226;48.606;9.096;2023-03-08T05:23:43;3.80;10.80
480;DHT22;226;48.606;9.096;2023-03-08T05:26:13;3.60;10.30
480;DHT22;226;48.606;9.096;2023-03-08T05:28:42;3.60;10.90
480;DHT22;226;48.606;9.096;2023-03-08T05:31:13;3.80;10.70
480;DHT22;226;48.606;9.096;2023-03-08T05:33:43;3.90;10.80
480;DHT22;226;48.606;9.096;2023-03-08T05:36:13;3.70;10.90
480;DHT22;226;48.606;9.096;2023-03-08T05:38:42;4.10;11.40
480;DHT22;226;48.606;9.096;2023-03-08T05:41:12;3.90;10.70
480;DHT22;226;48.606;9.096;2023-03-08T05:43:41;4.70;11.30
480;DHT22;226;48.606;9.096;2023-03-08T05:46:12;3.70;10.30
480;DHT22;226;48.606;9.096;2023-03-08T05:48:41;4.00;10.50
480;DHT22;226;48.606;9.096;2023-03-08T05:51:11;4.00;10.80
480;DHT22;226;48.606;9.096;2023-03-08T05:53:39;4.00;10.90
480;DHT22;226;48.606;9.096;2023-03-08T05:56:09;3.80;10.70
480;DHT22;226;48.606;9.096;2023-03-08T05:58:38;4.00;11.50
480;DHT22;226;48.606;9.096;2023-03-08T06:01:12;4.00;11.00
480;DHT22;226;48.606;9.096;2023-03-08T06:03:42;4.00;11.20
480;DHT22;226;48.606;9.096;2023-03-08T06:06:10;4.00;10.90
480;DHT22;226;48.606;9.096;2023-03-08T06:08:39;4.10;11.40
480;DHT22;226;48.606;9.096;2023-03-08T06:11:08;3.90;11.20
480;DHT22;226;48.606;9.096;2023-03-08T06:13:36;4.20;11.10
480;DHT22;226;48.606;9.096;2023-03-08T06:16:05;4.20;11.10
480;DHT22;226;48.606;9.096;2023-03-08T06:18:36;4.20;11.50
480;DHT22;226;48.606;9.096;2023-03-08T06:21:05;4.30;11.30
480;DHT22;226;48.606;9.096;2023-03-08T06:23:35;4.10;11.50
480;DHT22;226;48.606;9.096;2023-03-08T06:26:03;4.40;10.70
480;DHT22;226;48.606;9.096;2023-03-08T06:28:32;4.40;11.00
480;DHT22;226;48.606;9.096;2023-03-08T06:31:00;4.40;10.80
480;DHT22;226;48.606;9.096;2023-03-08T06:33:30;4.60;11.20
480;DHT22;226;48.606;9.096;2023-03-08T06:36:01;4.30;11.30
480;DHT22;226;48.606;9.096;2023-03-08T06:38:31;4.70;11.20
480;DHT22;226;48.606;9.096;2023-03-08T06:41:00;4.60;11.00
480;DHT22;226;48.606;9.096;2023-03-08T06:43:28;4.80;11.00
480;DHT22;226;48.606;9.096;2023-03-08T06:45:57;4.80;11.00
480;DHT22;226;48.606;9.096;2023-03-08T06:48:25;4.80;10.80
480;DHT22;226;48.606;9.096;2023-03-08T06:50:53;4.80;11.10
480;DHT22;226;48.606;9.096;2023-03-08T06:53:23;4.80;11.30
480;DHT22;226;48.606;9.096;2023-03-08T06:55:51;4.80;11.00
480;DHT22;226;48.606;9.096;2023-03-08T06:58:19;4.80;11.60
480;DHT22;226;48.606;9.096;2023-03-08T07:00:48;4.80;11.20
480;DHT22;226;48.606;9.096;2023-03-08T07:03:16;4.90;11.10
480;DHT22;226;48.606;9.096;2023-03-08T07:05:44;5.00;11.10
480;DHT22;226;48.606;9.096;2023-03-08T07:08:12;4.90;11.80
480;DHT22;226;48.606;9.096;2023-03-08T07:10:41;4.80;11.30
480;DHT22;226;48.606;9.096;2023-03-08T07:13:10;4.80;12.00
480;DHT22;226;48.606;9.096;2023-03-08T07:15:39;6.10;13.20
480;DHT22;226;48.606;9.096;2023-03-08T07:18:07;4.90;12.40
480;DHT22;226;48.606;9.096;2023-03-08T07:20:35;4.90;13.00
480;DHT22;226;48.606;9.096;2023-03-08T07:23:03;4.90;12.40
480;DHT22;226;48.606;9.096;2023-03-08T07:25:31;4.90;12.70
480;DHT22;226;48.606;9.096;2023-03-08T07:28:01;5.10;12.30
480;DHT22;226;48.606;9.096;2023-03-08T07:30:29;6.10;13.30
480;DHT22;226;48.606;9.096;2023-03-08T07:32:57;4.80;12.20
480;DHT22;226;48.606;9.096;2023-03-08T07:35:25;5.10;12.70
480;DHT22;226;48.606;9.096;2023-03-08T07:37:54;5.10;12.60
480;DHT22;226;48.606;9.096;2023-03-08T07:40:22;5.10;12.70
480;DHT22;226;48.606;9.096;2023-03-08T07:42:50;4.60;12.80
480;DHT22;226;48.606;9.096;2023-03-08T07:45:20;5.20;12.70
480;DHT22;226;48.606;9.096;2023-03-08T07:47:49;5.10;12.70
480;DHT22;226;48.606;9.096;2023-03-08T07:50:18;4.90;13.00
480;DHT22;226;48.606;9.096;2023-03-08T07:52:47;5.30;12.90
480;DHT22;226;48.606;9.096;2023-03-08T07:55:15;5.40;13.00
480;DHT22;226;48.606;9.096;2023-03-08T07:57:44;5.40;12.90
480;DHT22;226;48.606;9.096;2023-03-08T08:00:13;5.50;13.70
480;DHT22;226;48.606;9.096;2023-03-08T08:02:44;5.50;14.00
480;DHT22;226;48.606;9.096;2023-03-08T08:05:14;5.70;12.60
480;DHT22;226;48.606;9.096;2023-03-08T08:07:45;5.80;13.30
480;DHT22;226;48.606;9.096;2023-03-08T08:10:13;5.90;12.50
480;DHT22;226;48.606;9.096;2023-03-08T08:12:41;6.00;13.10
480;DHT22;226;48.606;9.096;2023-03-08T08:15:10;6.10;12.50
480;DHT22;226;48.606;9.096;2023-03-08T08:17:38;6.40;12.30
480;DHT22;226;48.606;9.096;2023-03-08T08:20:09;6.10;11.90
480;DHT22;226;48.606;9.096;2023-03-08T08:22:37;6.20;12.00
480;DHT22;226;48.606;9.096;2023-03-08T08:25:06;6.20;12.10
480;DHT22;226;48.606;9.096;2023-03-08T08:27:35;6.10;12.30
480;DHT22;226;48.606;9.096;2023-03-08T08:30:04;6.20;12.80
480;DHT22;226;48.606;9.096;2023-03-08T08:32:33;6.40;12.50
480;DHT22;226;48.606;9.096;2023-03-08T08:35:02;6.50;12.40
480;DHT22;226;48.606;9.096;2023-03-08T08:37:32;6.60;22.40
480;DHT22;226;48.606;9.096;2023-03-08T08:40:00;6.80;21.50
480;DHT22;226;48.606;9.096;2023-03-08T08:42:30;6.90;21.30
480;DHT22;226;48.606;9.096;2023-03-08T08:44:58;6.90;21.00
480;DHT22;226;48.606;9.096;2023-03-08T08:47:27;6.90;25.60
480;DHT22;226;48.606;9.096;2023-03-08T08:49:55;6.90;25.50
480;DHT22;226;48.606;9.096;2023-03-08T08:52:24;7.20;26.60
480;DHT22;226;48.606;9.096;2023-03-08T08:54:53;8.10;18.90
480;DHT22;226;48.606;9.096;2023-03-08T08:57:22;7.10;16.20
480;DHT22;226;48.606;9.096;2023-03-08T08:59:50;7.30;15.20
480;DHT22;226;48.606;9.096;2023-03-08T09:02:18;7.20;17.20
480;DHT22;226;48.606;9.096;2023-03-08T09:04:47;7.10;15.70
480;DHT22;226;48.606;9.096;2023-03-08T09:07:15;7.40;17.00
480;DHT22;226;48.606;9.096;2023-03-08T09:09:43;7.20;18.30
480;DHT22;226;48.606;9.096;2023-03-08T09:12:13;7.60;17.10
480;DHT22;226;48.606;9.096;2023-03-08T09:14:42;7.50;15.00
480;DHT22;226;48.606;9.096;2023-03-08T09:17:10;7.50;15.50
480;DHT22;226;48.606;9.096;2023-03-08T09:19:39;7.50;16.80
480;DHT22;226;48.606;9.096;2023-03-08T09:22:08;7.60;25.70
480;DHT22;226;48.606;9.096;2023-03-08T09:24:36;7.70;24.00
480;DHT22;226;48.606;9.096;2023-03-08T09:27:04;7.70;21.00
480;DHT22;226;48.606;9.096;2023-03-08T09:29:34;7.60;20.90
480;DHT22;226;48.606;9.096;2023-03-08T09:32:04;7.60;20.40
480;DHT22;226;48.606;9.096;2023-03-08T09:34:33;7.70;19.40
480;DHT22;226;48.606;9.096;2023-03-08T09:37:01;7.70;20.30
480;DHT22;226;48.606;9.096;2023-03-08T09:39:31;7.80;19.90
480;DHT22;226;48.606;9.096;2023-03-08T09:42:01;7.80;20.50
480;DHT22;226;48.606;9.096;2023-03-08T09:44:58;7.70;21.90
480;DHT22;226;48.606;9.096;2023-03-08T09:47:32;7.90;22.20
480;DHT22;226;48.606;9.096;2023-03-08T09:50:13;8.10;21.60
480;DHT22;226;48.606;9.096;2023-03-08T09:52:48;8.20;21.30
480;DHT22;226;48.606;9.096;2023-03-08T09:55:19;8.50;25.40
480;DHT22;226;48.606;9.096;2023-03-08T09:57:53;8.70;32.00
480;DHT22;226;48.606;9.096;2023-03-08T10:00:27;8.70;32.80
480;DHT22;226;48.606;9.096;2023-03-08T10:03:07;8.50;29.80
480;DHT22;226;48.606;9.096;2023-03-08T10:05:44;8.50;30.50
480;DHT22;226;48.606;9.096;2023-03-08T10:08:17;8.80;29.90
480;DHT22;226;48.606;9.096;2023-03-08T10:10:52;8.70;30.10
480;DHT22;226;48.606;9.096;2023-03-08T10:13:32;8.80;30.50
480;DHT22;226;48.606;9.096;2023-03-08T10:16:11;8.60;30.40
480;DHT22;226;48.606;9.096;2023-03-08T10:18:44;8.70;31.00
480;DHT22;226;48.606;9.096;2023-03-08T10:21:16;8.70;31.70
480;DHT22;226;48.606;9.096;2023-03-08T10:23:46;9.30;31.70
480;DHT22;226;48.606;9.096;2023-03-08T10:26:15;8.70;31.80
480;DHT22;226;48.606;9.096;2023-03-08T10:28:48;8.60;33.10
480;DHT22;226;48.606;9.096;2023-03-08T10:31:21;8.20;32.30
480;DHT22;226;48.606;9.096;2023-03-08T10:33:56;8.40;34.50
480;DHT22;226;48.606;9.096;2023-03-08T10:36:25;8.50;34.50
480;DHT22;226;48.606;9.096;2023-03-08T10:39:35;8.60;33.20
480;DHT22;226;48.606;9.096;2023-03-08T10:43:05;8.70;33.80
480;DHT22;226;48.606;9.096;2023-03-08T10:46:03;8.80;34.70
480;DHT22;226;48.606;9.096;2023-03-08T10:56:01;9.20;36.00
480;DHT22;226;48.606;9.096;2023-03-08T10:58:57;9.30;34.40
480;DHT22;226;48.606;9.096;2023-03-08T11:01:28;9.40;35.50
480;DHT22;226;48.606;9.096;2023-03-08T11:03:58;9.60;36.30
480;DHT22;226;48.606;9.096;2023-03-08T11:06:28;9.70;36.30
480;DHT22;226;48.606;9.096;2023-03-08T11:08:58;9.80;36.60
480;DHT22;226;48.606;9.096;2023-03-08T11:11:27;9.90;36.30
480;DHT22;226;48.606;9.096;2023-03-08T11:13:55;10.00;36.90
480;DHT22;226;48.606;9.096;2023-03-08T11:16:42;10.30;37.10
480;DHT22;226;48.606;9.096;2023-03-08T11:22:26;10.30;35.90
480;DHT22;226;48.606;9.096;2023-03-08T11:25:06;10.30;36.10
480;DHT22;226;48.606;9.096;2023-03-08T11:27:50;10.50;36.30
480;DHT22;226;48.606;9.096;2023-03-08T11:30:27;10.70;36.00
480;DHT22;226;48.606;9.096;2023-03-08T11:33:35;10.50;36.40
480;DHT22;226;48.606;9.096;2023-03-08T11:36:10;10.70;38.40
480;DHT22;226;48.606;9.096;2023-03-08T11:38:42;10.90;45.60
480;DHT22;226;48.606;9.096;2023-03-08T11:41:18;10.90;45.30
480;DHT22;226;48.606;9.096;2023-03-08T11:44:15;10.90;45.50
480;DHT22;226;48.606;9.096;2023-03-08T11:46:57;10.80;46.10
480;DHT22;226;48.606;9.096;2023-03-08T11:49:42;10.90;46.10
480;DHT22;226;48.606;9.096;2023-03-08T11:52:21;11.00;44.70
480;DHT22;226;48.606;9.096;2023-03-08T11:55:02;11.10;51.80
480;DHT22;226;48.606;9.096;2023-03-08T11:57:37;11.00;50.00
480;DHT22;226;48.606;9.096;2023-03-08T12:00:14;10.90;49.70
480;DHT22;226;48.606;9.096;2023-03-08T12:02:49;10.90;49.10
480;DHT22;226;48.606;9.096;2023-03-08T12:05:24;11.00;49.10
480;DHT22;226;48.606;9.096;2023-03-08T12:07:57;11.00;48.20
480;DHT22;226;48.606;9.096;2023-03-08T12:10:31;11.10;48.50
480;DHT22;226;48.606;9.096;2023-03-08T12:13:05;11.10;48.40
480;DHT22;226;48.606;9.096;2023-03-08T12:15:41;11.10;48.40
480;DHT22;226;48.606;9.096;2023-03-08T12:18:15;11.20;48.30
480;DHT22;226;48.606;9.096;2023-03-08T12:20:45;11.20;48.40
480;DHT22;226;48.606;9.096;2023-03-08T12:23:24;11.30;48.20
480;DHT22;226;48.606;9.096;2023-03-08T12:26:01;11.40;47.80
480;DHT22;226;48.606;9.096;2023-03-08T12:28:35;11.50;48.00
480;DHT22;226;48.606;9.096;2023-03-08T12:31:16;11.50;46.90
480;DHT22;226;48.606;9.096;2023-03-08T12:33:56;11.60;47.70
480;DHT22;226;48.606;9.096;2023-03-08T12:36:36;11.60;47.50
480;DHT22;226;48.606;9.096;2023-03-08T12:39:06;11.50;47.40
480;DHT22;226;48.606;9.096;2023-03-08T12:41:36;11.40;47.70
480;DHT22;226;48.606;9.096;2023-03-08T12:44:06;11.40;47.10
480;DHT22;226;48.606;9.096;2023-03-08T12:46:50;11.40;47.10
480;DHT22;226;48.606;9.096;2023-03-08T12:49:31;11.50;48.30
480;DHT22;226;48.606;9.096;2023-03-08T12:52:05;11.50;48.00
480;DHT22;226;48.606;9.096;2023-03-08T12:54:34;11.60;48.10
480;DHT22;226;48.606;9.096;2023-03-08T12:57:14;11.80;47.60
480;DHT22;226;48.606;9.096;2023-03-08T12:59:43;11.50;47.90
480;DHT22;226;48.606;9.096;2023-03-08T13:02:25;11.40;48.10
480;DHT22;226;48.606;9.096;2023-03-08T13:05:17;11.40;48.30
480;DHT22;226;48.606;9.096;2023-03-08T13:08:00;11.40;48.90
480;DHT22;226;48.606;9.096;2023-03-08T13:10:31;11.40;47.80
480;DHT22;226;48.606;9.096;2023-03-08T13:13:20;11.50;48.60
480;DHT22;226;48.606;9.096;2023-03-08T13:16:07;11.60;48.90
480;DHT22;226;48.606;9.096;2023-03-08T13:18:46;11.70;48.30
480;DHT22;226;48.606;9.096;2023-03-08T13:21:23;11.70;48.50
480;DHT22;226;48.606;9.096;2023-03-08T13:23:59;11.70;48.30
480;DHT22;226;48.606;9.096;2023-03-08T13:26:50;11.70;48.20
480;DHT22;226;48.606;9.096;2023-03-08T13:29:29;11.70;47.90
480;DHT22;226;48.606;9.096;2023-03-08T13:32:10;11.60;47.90
480;DHT22;226;48.606;9.096;2023-03-08T13:34:39;11.60;47.00
480;DHT22;226;48.606;9.096;2023-03-08T13:37:19;11.70;47.80
480;DHT22;226;48.606;9.096;2023-03-08T13:39:51;11.80;47.90
480;DHT22;226;48.606;9.096;2023-03-08T13:42:28;11.90;48.80
480;DHT22;226;48.606;9.096;2023-03-08T13:45:08;12.00;48.90
480;DHT22;226;48.606;9.096;2023-03-08T13:47:38;12.00;47.90
480;DHT22;226;48.606;9.096;2023-03-08T13:50:07;12.10;48.20
480;DHT22;226;48.606;9.096;2023-03-08T13:52:43;12.30;43.60
480;DHT22;226;48.606;9.096;2023-03-08T13:55:17;12.50;42.00
480;DHT22;226;48.606;9.096;2023-03-08T13:57:49;12.50;42.60
480;DHT22;226;48.606;9.096;2023-03-08T14:00:28;12.60;40.50
480;DHT22;226;48.606;9.096;2023-03-08T14:02:57;12.60;40.50
480;DHT22;226;48.606;9.096;2023-03-08T14:05:28;12.60;39.80
480;DHT22;226;48.606;9.096;2023-03-08T14:07:59;12.60;39.40
480;DHT22;226;48.606;9.096;2023-03-08T14:10:35;12.60;38.70
480;DHT22;226;48.606;9.096;2023-03-08T14:13:04;12.80;23.40
480;DHT22;226;48.606;9.096;2023-03-08T14:15:37;12.70;23.10
480;DHT22;226;48.606;9.096;2023-03-08T14:18:06;12.60;22.20
480;DHT22;226;48.606;9.096;2023-03-08T14:20:43;12.70;21.90
480;DHT22;226;48.606;9.096;2023-03-08T14:23:19;12.70;21.50
480;DHT22;226;48.606;9.096;2023-03-08T14:25:55;12.80;21.30
480;DHT22;226;48.606;9.096;2023-03-08T14:28:37;12.70;21.40
480;DHT22;226;48.606;9.096;2023-03-08T14:31:23;12.70;21.90
480;DHT22;226;48.606;9.096;2023-03-08T14:33:57;12.90;21.40
480;DHT22;226;48.606;9.096;2023-03-08T14:36:26;12.80;21.60
480;DHT22;226;48.606;9.096;2023-03-08T14:38:55;12.80;22.10
480;DHT22;226;48.606;9.096;2023-03-08T14:41:30;12.70;22.20
480;DHT22;226;48.606;9.096;2023-03-08T14:43:59;12.70;22.40
480;DHT22;226;48.606;9.096;2023-03-08T14:46:30;12.70;23.40
480;DHT22;226;48.606;9.096;2023-03-08T14:49:00;12.70;23.70
480;DHT22;226;48.606;9.096;2023-03-08T14:51:34;13.00;23.10
480;DHT22;226;48.606;9.096;2023-03-08T14:54:04;12.90;23.10
480;DHT22;226;48.606;9.096;2023-03-08T14:56:34;12.70;24.60
480;DHT22;226;48.606;9.096;2023-03-08T14:59:03;12.50;24.40
480;DHT22;226;48.606;9.096;2023-03-08T15:01:34;12.50;24.10
480;DHT22;226;48.606;9.096;2023-03-08T15:04:05;12.50;24.30
480;DHT22;226;48.606;9.096;2023-03-08T15:06:40;12.40;24.10
480;DHT22;226;48.606;9.096;2023-03-08T15:09:12;12.40;24.70
480;DHT22;226;48.606;9.096;2023-03-08T15:11:42;12.40;24.80
480;DHT22;226;48.606;9.096;2023-03-08T15:14:11;12.40;24.60
480;DHT22;226;48.606;9.096;2023-03-08T15:16:40;12.50;24.10
480;DHT22;226;48.606;9.096;2023-03-08T15:19:08;12.60;23.80
480;DHT22;226;48.606;9.096;2023-03-08T15:21:39;12.60;23.60
480;DHT22;226;48.606;9.096;2023-03-08T15:24:12;12.50;23.20
480;DHT22;226;48.606;9.096;2023-03-08T15:26:42;12.50;23.20
480;DHT22;226;48.606;9.096;2023-03-08T15:29:22;12.50;23.00
480;DHT22;226;48.606;9.096;2023-03-08T15:31:52;12.50;23.10
480;DHT22;226;48.606;9.096;2023-03-08T15:34:20;12.40;23.40
480;DHT22;226;48.606;9.096;2023-03-08T15:36:49;12.40;23.10
480;DHT22;226;48.606;9.096;2023-03-08T15:39:18;12.50;23.20
480;DHT22;226;48.606;9.096;2023-03-08T15:41:47;12.50;23.10
480;DHT22;226;48.606;9.096;2023-03-08T15:44:15;12.50;23.30
480;DHT22;226;48.606;9.096;2023-03-08T15:46:43;12.60;23.40
480;DHT22;226;48.606;9.096;2023-03-08T15:49:13;12.60;22.80
480;DHT22;226;48.606;9.096;2023-03-08T15:51:41;12.60;22.70
480;DHT22;226;48.606;9.096;2023-03-08T15:54:10;12.50;22.30
480;DHT22;226;48.606;9.096;2023-03-08T15:56:38;12.60;22.80
480;DHT22;226;48.606;9.096;2023-03-08T15:59:06;12.60;22.40
480;DHT22;226;48.606;9.096;2023-03-08T16:01:34;12.50;22.30
480;DHT22;226;48.606;9.096;2023-03-08T16:04:02;12.60;21.50
480;DHT22;226;48.606;9.096;2023-03-08T16:06:32;12.70;21.90
480;DHT22;226;48.606;9.096;2023-03-08T16:09:00;12.70;21.40
480;DHT22;226;48.606;9.096;2023-03-08T16:11:28;12.70;21.30
480;DHT22;226;48.606;9.096;2023-03-08T16:13:58;12.60;21.50
480;DHT22;226;48.606;9.096;2023-03-08T16:16:26;12.60;21.90
480;DHT22;226;48.606;9.096;2023-03-08T16:19:10;12.50;22.10
480;DHT22;226;48.606;9.096;2023-03-08T16:21:40;12.50;22.00
480;DHT22;226;48.606;9.096;2023-03-08T16:24:09;12.30;23.60
480;DHT22;226;48.606;9.096;2023-03-08T16:26:38;12.20;24.60
480;DHT22;226;48.606;9.096;2023-03-08T16:29:07;12.10;26.20
480;DHT22;226;48.606;9.096;2023-03-08T16:31:35;12.00;28.10
480;DHT22;226;48.606;9.096;2023-03-08T16:34:04;11.80;33.20
480;DHT22;226;48.606;9.096;2023-03-08T16:36:32;11.60;37.50
480;DHT22;226;48.606;9.096;2023-03-08T16:39:02;11.40;40.60
480;DHT22;226;48.606;9.096;2023-03-08T16:41:32;11.30;43.00
480;DHT22;226;48.606;9.096;2023-03-08T16:44:00;11.20;46.30
480;DHT22;226;48.606;9.096;2023-03-08T16:46:28;11.10;46.90
480;DHT22;226;48.606;9.096;2023-03-08T16:48:56;11.00;47.60
480;DHT22;226;48.606;9.096;2023-03-08T16:51:27;11.00;48.30
480;DHT22;226;48.606;9.096;2023-03-08T16:53:56;11.00;49.00
480;DHT22;226;48.606;9.096;2023-03-08T16:56:27;11.00;50.80
480;DHT22;226;48.606;9.096;2023-03-08T16:59:16;11.00;50.90
480;DHT22;226;48.606;9.096;2023-03-08T17:01:44;11.00;51.60
480;DHT22;226;48.606;9.096;2023-03-08T17:04:13;11.00;52.30
480;DHT22;226;48.606;9.096;2023-03-08T17:06:43;11.00;52.10
480;DHT22;226;48.606;9.096;2023-03-08T17:09:11;11.00;52.00
480;DHT22;226;48.606;9.096;2023-03-08T17:11:41;11.00;53.60
480;DHT22;226;48.606;9.096;2023-03-08T17:14:12;10.90;53.30
480;DHT22;226;48.606;9.096;2023-03-08T17:16:41;11.00;53.30
480;DHT22;226;48.606;9.096;2023-03-08T17:19:10;10.90;53.60
480;DHT22;226;48.606;9.096;2023-03-08T17:21:39;10.90;53.00
480;DHT22;226;48.606;9.096;2023-03-08T17:24:10;10.80;55.20
480;DHT22;226;48.606;9.096;2023-03-08T17:26:44;10.60;56.80